Jonesboro Municipal Airport
KJBR : now visible

Airfield :











YOU CAN JOIN US ON...

 
LOGIN :

Register | Disclaimer

   EN    FR    IT 

 









Legend :    VFR   Marginal VFR   IFR   Intensive IFR   Very Intensive IFR
Visi :
Ceiling :
>= 8 km
>= 3000ft
5 to 8 km
1000 to 3000 ft
1500m to 5 km
500 to 1000 ft
800 to 1500m
200 to 500 ft
< 800m
< 200 ft
Symbols :   Thunderstorms  Fog  Heavy snow  Heavy precipitations  Wind > 20 kt






- Airport Elevation : 262 ft
- IATA code : JBR


KJBR - Jonesboro Municipal

CURRENT METAR :
  • 192053Z AUTO 08004KT 8SM OVC005 16/14 A3003 RMK AO2 SLP168 T01610139 56020 TSNO $

EXPIRED METARs :
  • 192028Z AUTO 05003KT 9SM OVC005 16/13 A3004 RMK AO2 T01560133 TSNO $
  • 191953Z AUTO 07004KT 8SM OVC004 14/13 A3005 RMK AO2 SLP172 T01440128 TSNO $
  • 191853Z AUTO 06005KT 6SM BR OVC004 13/12 A3007 RMK AO2 SLP183 T01330122 TSNO $

TAF KJBR
Valid from the 19 at 18:00 until the 20 at 18:00 UTC


191720Z 1918/2018 06009KT 4SM BR VCSH OVC003
FM192100 VRB03KT 5SM BR VCSH SCT005 BKN015 OVC060
FM200200 03003KT 3SM BR OVC003
FM201400 17005KT 5SM BR OVC005
KZME FIR / North America



MET'MAP, your aeronautical weather chart ! - Copyright ORBIFLY December 2007 - Disclaimer

ORBIFLY MET'MAP TEAM :

Programming & Development : Alexandra Zaïnal
Concept & original design : Baudouin d'Aumeries
Assistance for programming : Marc-Olivier Méhu
Technical & hardware support : Manuel Goepfert

Contact : metmap@orbifly.com




SOURCES & CREDITS :

   NOAA       Earth
Advisory